sensor_id;sensor_type;location;lat;lon;timestamp;temperature;humidity
12374;DHT22;6251;51.762;8.660;2022-09-01T04:22:49;11.10;99.90
12374;DHT22;6251;51.762;8.660;2022-09-01T06:16:27;11.50;99.90
12374;DHT22;6251;51.762;8.660;2022-09-01T06:26:30;11.70;99.90
12374;DHT22;6251;51.762;8.660;2022-09-01T06:36:33;12.00;99.90
12374;DHT22;6251;51.762;8.660;2022-09-01T06:46:35;12.30;99.90
12374;DHT22;6251;51.762;8.660;2022-09-01T06:56:36;12.70;99.90
12374;DHT22;6251;51.762;8.660;2022-09-01T07:06:39;13.00;99.90
12374;DHT22;6251;51.762;8.660;2022-09-01T07:16:41;13.50;99.90
12374;DHT22;6251;51.762;8.660;2022-09-01T07:26:43;14.10;99.90
12374;DHT22;6251;51.762;8.660;2022-09-01T07:36:45;14.60;99.90
12374;DHT22;6251;51.762;8.660;2022-09-01T07:46:46;15.10;99.90
12374;DHT22;6251;51.762;8.660;2022-09-01T07:56:51;15.60;99.90
12374;DHT22;6251;51.762;8.660;2022-09-01T08:06:54;15.90;99.90
12374;DHT22;6251;51.762;8.660;2022-09-01T08:16:55;16.30;99.90
12374;DHT22;6251;51.762;8.660;2022-09-01T08:26:55;16.60;99.90
12374;DHT22;6251;51.762;8.660;2022-09-01T08:36:56;17.00;99.90
12374;DHT22;6251;51.762;8.660;2022-09-01T08:47:09;17.20;99.90
12374;DHT22;6251;51.762;8.660;2022-09-01T08:57:19;17.70;99.90
12374;DHT22;6251;51.762;8.660;2022-09-01T09:17:37;18.40;99.90
12374;DHT22;6251;51.762;8.660;2022-09-01T09:27:42;18.80;99.90
12374;DHT22;6251;51.762;8.660;2022-09-01T09:37:43;19.20;99.90
12374;DHT22;6251;51.762;8.660;2022-09-01T09:47:44;19.50;99.90
12374;DHT22;6251;51.762;8.660;2022-09-01T09:57:47;19.80;99.90
12374;DHT22;6251;51.762;8.660;2022-09-01T10:07:48;20.40;99.90
12374;DHT22;6251;51.762;8.660;2022-09-01T10:17:51;21.00;99.90
12374;DHT22;6251;51.762;8.660;2022-09-01T10:27:57;21.50;99.90
12374;DHT22;6251;51.762;8.660;2022-09-01T10:38:00;22.00;98.10
12374;DHT22;6251;51.762;8.660;2022-09-01T10:58:41;21.90;96.00
12374;DHT22;6251;51.762;8.660;2022-09-01T11:08:46;22.30;95.10
12374;DHT22;6251;51.762;8.660;2022-09-01T11:29:53;22.30;95.80
12374;DHT22;6251;51.762;8.660;2022-09-01T11:39:57;22.20;94.50
12374;DHT22;6251;51.762;8.660;2022-09-01T11:50:07;22.00;94.50
12374;DHT22;6251;51.762;8.660;2022-09-01T12:00:29;21.90;94.70
12374;DHT22;6251;51.762;8.660;2022-09-01T12:10:33;22.00;94.60
12374;DHT22;6251;51.762;8.660;2022-09-01T12:20:36;22.20;94.20
12374;DHT22;6251;51.762;8.660;2022-09-01T12:30:39;22.30;92.80
12374;DHT22;6251;51.762;8.660;2022-09-01T12:40:40;22.70;93.30
12374;DHT22;6251;51.762;8.660;2022-09-01T12:50:42;23.00;92.70
12374;DHT22;6251;51.762;8.660;2022-09-01T13:01:23;23.30;93.10
12374;DHT22;6251;51.762;8.660;2022-09-01T13:11:24;24.00;91.20
12374;DHT22;6251;51.762;8.660;2022-09-01T13:21:25;24.20;90.90
12374;DHT22;6251;51.762;8.660;2022-09-01T13:31:26;24.00;88.10
12374;DHT22;6251;51.762;8.660;2022-09-01T13:41:29;24.10;88.60
12374;DHT22;6251;51.762;8.660;2022-09-01T13:51:31;24.50;89.70
12374;DHT22;6251;51.762;8.660;2022-09-01T14:01:31;24.40;90.90
12374;DHT22;6251;51.762;8.660;2022-09-01T14:11:32;24.10;90.50
12374;DHT22;6251;51.762;8.660;2022-09-01T14:21:33;24.00;91.20
12374;DHT22;6251;51.762;8.660;2022-09-01T14:31:33;24.20;90.90
12374;DHT22;6251;51.762;8.660;2022-09-01T14:41:35;24.10;90.40
12374;DHT22;6251;51.762;8.660;2022-09-01T14:51:36;23.90;90.80
12374;DHT22;6251;51.762;8.660;2022-09-01T15:01:37;23.90;90.50
12374;DHT22;6251;51.762;8.660;2022-09-01T15:11:40;23.70;86.90
12374;DHT22;6251;51.762;8.660;2022-09-01T15:21:43;23.60;89.10
12374;DHT22;6251;51.762;8.660;2022-09-01T15:31:44;23.50;90.60
12374;DHT22;6251;51.762;8.660;2022-09-01T15:41:46;23.40;91.20
12374;DHT22;6251;51.762;8.660;2022-09-01T15:51:46;23.10;87.60
12374;DHT22;6251;51.762;8.660;2022-09-01T16:01:47;22.70;90.20
12374;DHT22;6251;51.762;8.660;2022-09-01T16:11:48;22.50;87.50
12374;DHT22;6251;51.762;8.660;2022-09-01T16:32:17;22.10;89.60
12374;DHT22;6251;51.762;8.660;2022-09-01T16:53:26;21.80;90.00
12374;DHT22;6251;51.762;8.660;2022-09-01T17:03:49;21.60;88.40
12374;DHT22;6251;51.762;8.660;2022-09-01T17:13:54;21.50;89.80
12374;DHT22;6251;51.762;8.660;2022-09-01T17:24:06;21.30;89.90
12374;DHT22;6251;51.762;8.660;2022-09-01T18:16:31;20.20;93.20
12374;DHT22;6251;51.762;8.660;2022-09-01T18:26:36;19.80;93.70
12374;DHT22;6251;51.762;8.660;2022-09-01T18:47:16;19.10;94.50
12374;DHT22;6251;51.762;8.660;2022-09-01T18:57:23;18.80;94.60
12374;DHT22;6251;51.762;8.660;2022-09-01T19:18:04;18.20;95.40
12374;DHT22;6251;51.762;8.660;2022-09-01T19:28:20;17.90;96.00
12374;DHT22;6251;51.762;8.660;2022-09-01T19:38:26;17.70;96.80
12374;DHT22;6251;51.762;8.660;2022-09-01T19:48:39;17.40;96.70
12374;DHT22;6251;51.762;8.660;2022-09-01T20:09:21;16.90;97.70
12374;DHT22;6251;51.762;8.660;2022-09-01T20:29:49;16.40;98.50
